Acadia Natl Park, Maine
Current Conditions -  °F | °C
As of 2:35 AM on Saturday 01 Nov 2014 (Local Time) from KBHB Reporting Station
Overcast Overcast  
Wind Chill: 41°   Ceiling: 3800
Heat Index: 45°   Visibility: 10mi
Dew Point: 41°   Wind: 6mph
Humidity: 87%   Direction: 20°NNE
Pressure: 30.01"   Gusts: NA
Location:  44.3°N, 68.25°W
Report Text: KBHB 010635Z AUTO 02005KT 10SM SCT016 BKN038 OVC055 07/05 A3001 RMK AO1
Loading
Personal Weather Stations






























Interactive Weather Map
Tropical Storm Tracking
New forecast layout! Learn more

10-Day Weather Forecast

Advertisements
Track Severe Weather on mobile